createdAt,value
2023-01-21T06:03:25.862Z,1.90
2023-01-21T06:28:47.155Z,1.70
2023-01-21T06:49:05.133Z,1.80
2023-01-21T06:59:12.619Z,1.70
2023-01-21T07:04:17.623Z,1.90
2023-01-21T07:09:21.534Z,2.10
2023-01-21T07:14:25.147Z,1.80
2023-01-21T07:19:30.144Z,1.50
2023-01-21T07:24:33.740Z,2.00
2023-01-21T07:29:37.331Z,1.80
2023-01-21T07:34:42.956Z,1.60
2023-01-21T07:39:46.564Z,1.80
2023-01-21T07:44:55.912Z,1.50
2023-01-21T07:50:04.899Z,1.80
2023-01-21T07:55:11.668Z,1.70
2023-01-21T08:00:16.897Z,1.80
2023-01-21T08:05:22.709Z,1.90
2023-01-21T08:10:26.653Z,1.90
2023-01-21T08:15:30.313Z,1.90
2023-01-21T08:20:35.423Z,1.90
2023-01-21T08:25:39.077Z,1.90
2023-01-21T08:30:42.706Z,2.00
2023-01-21T08:35:47.809Z,2.10
2023-01-21T08:40:51.449Z,2.10
2023-01-21T08:45:58.552Z,2.20
2023-01-21T08:51:03.840Z,2.30
2023-01-21T08:56:08.632Z,2.50
2023-01-21T09:01:13.586Z,2.60
2023-01-21T09:06:18.595Z,2.90
2023-01-21T09:11:23.021Z,3.20
2023-01-21T09:16:27.012Z,3.60
2023-01-21T09:21:34.555Z,4.00
2023-01-21T09:26:38.313Z,4.60
2023-01-21T09:36:47.285Z,5.90
2023-01-21T09:41:53.236Z,6.50
2023-01-21T09:47:01.709Z,7.10
2023-01-21T09:52:26.876Z,7.60
2023-01-21T09:57:48.446Z,8.20
2023-01-21T10:02:58.991Z,9.20
2023-01-21T10:08:13.981Z,9.20
2023-01-21T10:13:43.825Z,9.50
2023-01-21T10:18:51.458Z,9.90
2023-01-21T10:24:00.042Z,10.30
2023-01-21T10:34:14.248Z,11.00
2023-01-21T10:39:31.504Z,11.30
2023-01-21T10:44:43.867Z,11.60
2023-01-21T10:49:56.862Z,11.60
2023-01-21T10:55:06.394Z,11.80
2023-01-21T11:00:21.412Z,12.00
2023-01-21T11:05:26.772Z,12.50
2023-01-21T11:10:32.139Z,12.50
2023-01-21T11:15:49.069Z,12.80
2023-01-21T11:26:07.700Z,13.20
2023-01-21T11:31:15.359Z,13.40
2023-01-21T11:36:20.530Z,14.00
2023-01-21T11:41:25.551Z,13.90
2023-01-21T11:46:36.608Z,14.30
2023-01-21T11:51:41.776Z,14.60
2023-01-21T11:56:56.258Z,14.90
2023-01-21T12:02:06.694Z,14.90
2023-01-21T12:07:20.941Z,14.80
2023-01-21T12:12:36.169Z,15.30
2023-01-21T12:17:53.254Z,15.30
2023-01-21T12:23:26.996Z,15.60
2023-01-21T12:28:50.252Z,16.00
2023-01-21T12:34:01.309Z,16.00
2023-01-21T12:39:19.372Z,16.20
2023-01-21T12:44:31.852Z,16.50
2023-01-21T12:50:09.769Z,16.80
2023-01-21T12:55:20.867Z,16.90
2023-01-21T13:00:30.149Z,16.70
2023-01-21T13:05:39.293Z,16.80
2023-01-21T13:10:47.118Z,16.90
2023-01-21T13:15:56.269Z,17.10
2023-01-21T13:21:06.858Z,17.10
2023-01-21T13:26:17.928Z,17.20
2023-01-21T13:31:30.227Z,17.30
2023-01-21T13:36:54.332Z,17.10
2023-01-21T13:42:07.589Z,16.90
2023-01-21T13:47:23.095Z,16.60
2023-01-21T13:52:37.936Z,16.60
2023-01-21T13:58:01.027Z,16.50
2023-01-21T14:03:17.537Z,16.40
2023-01-21T14:08:26.341Z,16.00
2023-01-21T14:14:01.229Z,16.00
2023-01-21T14:19:31.125Z,16.00
2023-01-21T14:24:50.617Z,15.70
2023-01-21T14:29:58.994Z,13.20
2023-01-21T14:35:14.862Z,15.50
2023-01-21T14:40:23.845Z,15.50
2023-01-21T14:45:52.598Z,15.30
2023-01-21T14:51:11.021Z,14.90
2023-01-21T14:56:22.817Z,14.80
2023-01-21T15:01:29.572Z,14.30
2023-01-21T15:06:39.685Z,14.10
2023-01-21T15:11:45.679Z,14.00
2023-01-21T15:22:30.229Z,13.80
2023-01-21T15:27:35.281Z,13.60
2023-01-21T15:32:40.772Z,13.50
2023-01-21T15:37:47.979Z,13.10
2023-01-21T15:43:00.002Z,13.00
2023-01-21T15:48:25.377Z,12.90
2023-01-21T15:53:53.908Z,12.50
2023-01-21T15:59:09.880Z,12.10
2023-01-21T16:04:26.236Z,11.70
2023-01-21T16:09:42.000Z,11.40
2023-01-21T16:14:59.355Z,11.00
2023-01-21T16:25:13.118Z,10.90
2023-01-21T16:30:22.140Z,10.00
2023-01-21T16:40:30.761Z,9.50
2023-01-21T16:45:35.798Z,9.30
2023-01-21T16:55:46.222Z,8.90
2023-01-21T17:01:03.923Z,8.70
2023-01-21T17:06:15.110Z,8.40
2023-01-21T17:16:27.736Z,8.30
2023-01-21T17:21:35.118Z,8.00
2023-01-21T17:26:44.896Z,7.80
2023-01-21T17:31:57.546Z,7.80
2023-01-21T17:42:06.092Z,7.40
2023-01-21T17:47:20.225Z,7.30
2023-01-21T17:57:37.405Z,6.90
2023-01-21T18:02:42.551Z,6.80
2023-01-21T18:17:58.401Z,6.50
2023-01-21T18:28:08.484Z,9.40
2023-01-21T18:33:14.037Z,6.00
2023-01-21T18:38:21.812Z,5.90
2023-01-21T18:43:26.501Z,5.70
2023-01-21T18:48:33.386Z,5.60
2023-01-21T19:03:47.022Z,5.30
2023-01-21T19:18:59.919Z,5.10
2023-01-21T19:29:14.924Z,4.90
2023-01-21T19:34:20.111Z,4.70
2023-01-21T19:39:25.420Z,4.60
2023-01-21T19:49:34.552Z,4.30
2023-01-21T19:59:42.239Z,4.20
2023-01-21T20:04:47.231Z,4.10
2023-01-21T20:20:00.262Z,4.10
2023-01-21T20:30:16.617Z,4.00
2023-01-21T20:35:24.668Z,3.90
2023-01-21T20:40:29.912Z,3.90
2023-01-21T20:45:35.720Z,3.80
2023-01-21T20:50:40.759Z,3.70
2023-01-21T20:55:47.682Z,3.70
2023-01-21T21:05:57.096Z,3.60
2023-01-21T21:16:15.361Z,3.50
2023-01-21T21:21:23.339Z,3.40
2023-01-21T21:26:29.888Z,3.40
2023-01-21T21:36:42.023Z,3.30
2023-01-21T21:52:31.295Z,3.20
2023-01-21T21:57:35.794Z,3.10
2023-01-21T22:07:44.696Z,3.10
2023-01-21T22:12:49.552Z,2.90
2023-01-21T22:22:58.622Z,2.80
2023-01-21T22:33:06.200Z,2.80
2023-01-21T22:38:11.206Z,2.70
2023-01-21T22:53:25.670Z,2.60
2023-01-21T22:58:30.880Z,2.60
2023-01-21T23:08:40.121Z,2.50
2023-01-21T23:13:44.578Z,2.40
2023-01-21T23:18:48.212Z,2.40
2023-01-21T23:23:53.196Z,2.40
2023-01-21T23:28:57.213Z,2.40
